CANO2: Clear Boggy Creek abv Caney Creek nr Caney, OK

Data processed at Thu May 23 2019 23:50


All information presented herein is the property of the government of the United States of America and may be revised or deleted at any time without prior notice.
Dissemination of this information without the expressed written consent of the Public Affairs Office, Tulsa District U.S. Army Corps of Engineers is strictly prohibited.
These data are gathered electronically and, as presented, have not undergone any form of quality control. These data are not guaranteed to be valid or correct.
Go to home page.
Go to station list.
Go to home page.

Upstream stations:

Downstream station:
Previous Day
Next Day
Current Day
    
SHEF ID:       CANO2     Clear Boggy Creek abv Caney Cree
STATION TYPE:  
Regulating: Stage =    19.00, Flow =     2600

                STAGE  RIV-FLOW  BAT-LOAD
                   ft       cfs      volt
              Ccp-Rev   Ccp-Rev   Ccp-Rev
(US/Central)
05/23 00:00     20.74      3250     12.77
05/23 01:00     20.46      3140     12.77
05/23 02:00     20.18      3040     12.77
05/23 03:00     19.88      2920     12.71
05/23 04:00     19.56      2810     12.71
05/23 05:00     19.25      2690     12.71
05/23 06:00     18.93      2580     12.71
05/23 07:00     18.61      2460     12.77
05/23 08:00     18.32      2360     12.89
05/23 09:00     18.04      2260     13.12
05/23 10:00     17.78      2160     13.30
05/23 11:00     17.53      2070     13.48
05/23 12:00     17.32      2000     13.53
05/23 13:00     17.08      1910     13.59
05/23 14:00     16.90      1850     13.30
05/23 15:00     16.72      1790     13.18
05/23 16:00     16.59      1740     13.12
05/23 17:00     16.43      1690     13.12
05/23 18:00     16.29      1640     13.12
05/23 19:00     16.17      1600     13.12
05/23 20:00     16.07      1560     13.07
05/23 21:00     15.94      1520     12.89
05/23 22:00     15.88      1500     12.83
05/23 23:00      ----      ----      ----